Time;durP1;ratioP1;P1;durP2;ratioP2;P2;SDS_P1;SDS_P2;PMS_P1;PMS_P2;Temp;Humidity;BMP_temperature;BMP_pressure;BME280_temperature;BME280_humidity;BME280_pressure;Samples;Min_cycle;Max_cycle;Signal;HPM_P1;HPM_P2
2023/06/24 00:01:38;;;;;;;5.60;4.77;;;;;;;17.58;100.00;101086.88;5079020;28;20193;-76
2023/06/24 00:04:03;;;;;;;4.83;4.53;;;;;;;17.51;100.00;101080.94;5088880;28;20571;-76
2023/06/24 00:06:29;;;;;;;4.97;4.57;;;;;;;17.48;100.00;101079.25;5089038;28;20213;-76
2023/06/24 00:09:00;;;;;;;6.33;4.70;;;;;;;17.43;100.00;101075.91;5093450;27;20765;-75
2023/06/24 00:11:29;;;;;;;5.30;4.80;;;;;;;17.37;100.00;101070.84;5084235;28;20212;-76
2023/06/24 00:13:55;;;;;;;4.93;4.30;;;;;;;17.31;100.00;101071.84;5084202;28;20694;-75
2023/06/24 00:16:26;;;;;;;4.83;4.30;;;;;;;17.26;100.00;101073.72;5085510;28;20188;-75
2023/06/24 00:18:52;;;;;;;5.03;4.63;;;;;;;17.23;100.00;101078.16;5087259;28;20275;-77
2023/06/24 00:21:19;;;;;;;4.87;4.47;;;;;;;17.22;100.00;101069.44;5092710;28;20224;-74
2023/06/24 00:23:44;;;;;;;4.80;4.40;;;;;;;17.20;100.00;101074.72;5081601;28;20262;-75
2023/06/24 00:26:11;;;;;;;5.30;4.43;;;;;;;17.17;100.00;101072.16;5082483;28;20343;-74
2023/06/24 00:28:36;;;;;;;5.10;4.70;;;;;;;17.15;100.00;101073.13;5085981;28;20264;-74
2023/06/24 00:31:02;;;;;;;5.07;4.67;;;;;;;17.06;100.00;101077.66;5091543;28;20191;-76
2023/06/24 00:33:28;;;;;;;4.70;4.30;;;;;;;16.99;100.00;101080.44;5084902;28;20603;-76
2023/06/24 00:35:54;;;;;;;5.50;5.00;;;;;;;16.89;100.00;101080.63;5083953;28;20186;-75
2023/06/24 00:38:20;;;;;;;4.93;4.53;;;;;;;16.79;100.00;101076.47;5082136;28;20181;-76
2023/06/24 00:40:46;;;;;;;4.93;4.53;;;;;;;16.73;100.00;101080.09;5082633;28;20193;-74
2023/06/24 00:43:11;;;;;;;4.87;4.47;;;;;;;16.73;100.00;101085.31;5077516;28;20641;-76
2023/06/24 00:45:37;;;;;;;5.47;4.50;;;;;;;16.73;100.00;101082.72;5083904;28;20201;-76
2023/06/24 00:48:03;;;;;;;5.03;4.63;;;;;;;16.73;100.00;101081.88;5080069;28;20714;-76
2023/06/24 00:50:28;;;;;;;5.00;4.60;;;;;;;16.74;100.00;101073.97;5082995;28;20208;-75
2023/06/24 00:52:53;;;;;;;4.30;4.00;;;;;;;16.76;100.00;101071.34;5094857;28;20296;-76
2023/06/24 00:55:22;;;;;;;4.43;4.13;;;;;;;16.77;100.00;101081.75;5086411;28;20189;-76
2023/06/24 00:57:51;;;;;;;5.27;4.57;;;;;;;16.79;100.00;101078.25;5080729;28;20665;-75
2023/06/24 01:00:18;;;;;;;5.40;4.90;;;;;;;16.79;100.00;101083.47;5076145;28;20185;-75
2023/06/24 01:02:47;;;;;;;5.20;4.70;;;;;;;16.77;100.00;101076.53;5081184;28;20223;-76
2023/06/24 01:05:12;;;;;;;4.80;4.50;;;;;;;16.76;100.00;101084.41;5086777;28;20249;-76
2023/06/24 01:07:39;;;;;;;4.70;4.27;;;;;;;16.74;100.00;101080.97;5096645;28;20220;-74
2023/06/24 01:10:06;;;;;;;4.70;4.20;;;;;;;16.71;100.00;101084.50;5085195;28;20197;-75
2023/06/24 01:12:38;;;;;;;4.97;4.33;;;;;;;16.68;100.00;101084.59;5080406;28;20242;-75
2023/06/24 01:15:08;;;;;;;5.67;4.80;;;;;;;16.65;100.00;101091.59;5082437;28;20205;-75
2023/06/24 01:17:41;;;;;;;4.73;4.43;;;;;;;16.58;100.00;101078.69;5080086;28;20597;-75
2023/06/24 01:20:21;;;;;;;5.00;4.50;;;;;;;16.53;100.00;101075.31;5087834;28;20216;-75
2023/06/24 01:23:08;;;;;;;5.47;4.97;;;;;;;16.51;100.00;101078.84;5078779;28;20802;-75
2023/06/24 01:26:10;;;;;;;4.80;4.40;;;;;;;16.46;100.00;101077.19;5080992;28;20216;-77
2023/06/24 01:29:00;;;;;;;5.00;4.53;;;;;;;16.45;100.00;101083.31;5083974;28;20275;-76
2023/06/24 01:31:30;;;;;;;4.97;4.57;;;;;;;16.44;100.00;101091.19;5081130;28;20192;-75
2023/06/24 01:34:06;;;;;;;5.67;5.17;;;;;;;16.38;100.00;101081.72;5082621;28;20219;-78
2023/06/24 01:36:34;;;;;;;6.63;5.10;;;;;;;16.34;100.00;101084.41;5089024;28;20192;-75
2023/06/24 01:39:07;;;;;;;4.80;4.47;;;;;;;16.29;100.00;101079.28;5095637;28;20199;-76
2023/06/24 01:41:42;;;;;;;6.33;5.00;;;;;;;16.27;100.00;101075.84;5087307;28;20193;-75
2023/06/24 01:44:13;;;;;;;4.70;4.20;;;;;;;16.24;100.00;101073.31;5083293;28;20216;-76
2023/06/24 01:46:41;;;;;;;5.37;4.70;;;;;;;16.21;100.00;101071.59;5086948;28;20216;-75
2023/06/24 01:49:11;;;;;;;5.87;4.97;;;;;;;16.19;100.00;101081.22;5099829;28;20192;-75
2023/06/24 01:51:40;;;;;;;5.60;4.83;;;;;;;16.14;100.00;101070.00;5080922;28;20707;-75
2023/06/24 01:54:10;;;;;;;5.30;4.80;;;;;;;16.12;100.00;101069.19;5088704;28;20199;-76
2023/06/24 01:56:37;;;;;;;4.70;4.30;;;;;;;16.07;100.00;101055.34;5083514;28;20184;-76
2023/06/24 01:59:04;;;;;;;5.13;4.73;;;;;;;16.04;100.00;101068.44;5082599;28;20204;-75
2023/06/24 02:01:32;;;;;;;5.00;4.50;;;;;;;16.02;100.00;101068.50;5080825;28;20238;-77
2023/06/24 02:04:01;;;;;;;6.63;4.60;;;;;;;16.01;100.00;101079.81;5087277;28;20230;-76
2023/06/24 02:06:29;;;;;;;4.93;4.53;;;;;;;15.98;100.00;101080.75;5084576;28;20210;-76
2023/06/24 02:08:58;;;;;;;5.53;5.03;;;;;;;15.94;100.00;101070.41;5083437;28;20280;-76
2023/06/24 02:11:24;;;;;;;5.13;4.70;;;;;;;15.92;100.00;101069.56;5074141;28;20195;-75
2023/06/24 02:13:51;;;;;;;5.00;4.70;;;;;;;15.89;100.00;101074.84;5079829;28;20213;-75
2023/06/24 02:16:17;;;;;;;5.50;5.10;;;;;;;15.88;100.00;101073.13;5087386;28;20197;-76
2023/06/24 02:18:44;;;;;;;5.77;4.83;;;;;;;15.86;100.00;101070.53;5083136;28;20188;-76
2023/06/24 02:21:10;;;;;;;7.93;4.77;;;;;;;15.83;100.00;101075.78;5084761;28;20225;-75
2023/06/24 02:23:37;;;;;;;5.63;5.13;;;;;;;15.79;100.00;101082.81;5084522;28;20211;-76
2023/06/24 02:26:05;;;;;;;5.87;4.50;;;;;;;15.77;100.00;101076.75;5082910;28;20674;-76
2023/06/24 02:28:32;;;;;;;5.90;5.30;;;;;;;15.75;100.00;101081.13;5087456;28;20554;-76
2023/06/24 02:30:58;;;;;;;5.93;4.40;;;;;;;15.71;100.00;101084.69;5084997;28;20236;-76
2023/06/24 02:33:24;;;;;;;5.57;4.87;;;;;;;15.63;100.00;101077.00;5087657;28;20253;-76
2023/06/24 02:35:49;;;;;;;5.43;4.87;;;;;;;15.59;100.00;101085.75;5093352;28;20220;-76
2023/06/24 02:38:15;;;;;;;5.07;4.40;;;;;;;15.58;100.00;101078.81;5095571;28;20188;-76
2023/06/24 02:40:43;;;;;;;5.93;4.63;;;;;;;15.58;100.00;101080.56;5087934;28;20227;-76
2023/06/24 02:43:09;;;;;;;5.10;4.67;;;;;;;15.58;100.00;101085.78;5090524;28;20234;-76
2023/06/24 02:45:34;;;;;;;5.27;4.77;;;;;;;15.57;100.00;101089.28;5084361;28;20247;-75
2023/06/24 02:48:00;;;;;;;5.50;5.03;;;;;;;15.58;100.00;101089.25;5080722;28;20259;-76
2023/06/24 02:50:26;;;;;;;5.67;4.93;;;;;;;15.60;100.00;101084.88;5090332;28;20275;-75
2023/06/24 02:52:52;;;;;;;5.10;4.70;;;;;;;15.62;100.00;101088.31;5089632;28;20933;-76
2023/06/24 02:55:17;;;;;;;5.50;4.97;;;;;;;15.62;100.00;101090.91;5098899;28;20191;-76
2023/06/24 02:57:44;;;;;;;5.37;4.87;;;;;;;15.63;100.00;101092.63;5096028;28;20192;-77
2023/06/24 03:00:13;;;;;;;5.33;4.83;;;;;;;15.64;100.00;101096.13;5084612;28;20181;-76
2023/06/24 03:02:38;;;;;;;4.50;4.20;;;;;;;15.64;100.00;101090.91;5084237;28;20252;-77
2023/06/24 03:05:05;;;;;;;5.30;4.80;;;;;;;15.63;100.00;101095.25;5085748;28;20653;-76
2023/06/24 03:07:33;;;;;;;4.83;4.50;;;;;;;15.64;100.00;101090.91;5085287;28;20185;-76
2023/06/24 03:09:59;;;;;;;5.00;4.60;;;;;;;15.64;100.00;101094.38;5089827;28;20180;-75
2023/06/24 03:12:24;;;;;;;4.90;4.47;;;;;;;15.66;100.00;101094.31;5084021;28;20586;-76
2023/06/24 03:14:49;;;;;;;5.87;4.77;;;;;;;15.67;100.00;101093.44;5086550;28;20180;-74
2023/06/24 03:17:15;;;;;;;5.40;4.90;;;;;;;15.68;100.00;101093.44;5083079;28;20177;-77
2023/06/24 03:19:41;;;;;;;4.87;4.47;;;;;;;15.70;100.00;101091.66;5091548;28;20514;-76
2023/06/24 03:22:06;;;;;;;5.27;4.83;;;;;;;15.72;100.00;101090.78;5088354;28;20223;-76
2023/06/24 03:24:32;;;;;;;4.83;4.43;;;;;;;15.75;100.00;101101.13;5087224;28;20749;-76
2023/06/24 03:26:57;;;;;;;4.80;4.40;;;;;;;15.75;100.00;101098.53;5095853;27;20216;-76
2023/06/24 03:29:23;;;;;;;5.07;4.67;;;;;;;15.77;100.00;101107.19;5096835;28;20198;-76
2023/06/24 03:31:48;;;;;;;5.03;4.60;;;;;;;15.77;100.00;101101.97;5089906;28;20199;-76
2023/06/24 03:34:13;;;;;;;5.13;4.60;;;;;;;15.78;100.00;101108.91;5090412;28;20727;-76
2023/06/24 03:36:39;;;;;;;5.10;4.70;;;;;;;15.77;100.00;101107.19;5093837;28;20607;-76
2023/06/24 03:39:05;;;;;;;4.97;4.67;;;;;;;15.79;100.00;101105.44;5079462;28;20832;-76
2023/06/24 03:41:30;;;;;;;5.10;4.70;;;;;;;15.84;100.00;101104.44;5096452;28;20180;-76
2023/06/24 03:43:56;;;;;;;6.23;5.13;;;;;;;15.89;100.00;101116.59;5084877;28;20315;-76
2023/06/24 03:46:21;;;;;;;7.67;4.40;;;;;;;15.92;100.00;101104.34;5081135;28;20213;-73
2023/06/24 03:48:47;;;;;;;6.67;4.40;;;;;;;15.96;100.00;101110.38;5093384;28;20281;-73
2023/06/24 03:51:12;;;;;;;6.10;4.40;;;;;;;16.00;100.00;101105.09;5085552;28;20191;-74
2023/06/24 03:53:38;;;;;;;6.17;4.80;;;;;;;16.07;100.00;101108.44;5081456;28;20703;-73
2023/06/24 03:56:03;;;;;;;5.13;4.60;;;;;;;16.23;100.00;101105.53;5087537;28;20654;-73
2023/06/24 03:58:29;;;;;;;5.53;4.83;;;;;;;16.42;100.00;101113.84;5091734;28;20189;-73
2023/06/24 04:00:56;;;;;;;4.70;4.30;;;;;;;16.56;100.00;101116.22;5096830;28;20228;-75
2023/06/24 04:03:22;;;;;;;5.00;4.60;;;;;;;16.72;100.00;101119.34;5085019;28;20681;-74
2023/06/24 04:05:47;;;;;;;5.20;4.80;;;;;;;16.86;100.00;101119.06;5076302;28;20212;-74
2023/06/24 04:08:13;;;;;;;5.17;4.77;;;;;;;16.94;100.00;101119.75;5083815;28;20193;-74
2023/06/24 04:10:38;;;;;;;4.93;4.53;;;;;;;16.98;100.00;101125.78;5088560;28;21072;-74
2023/06/24 04:13:04;;;;;;;5.17;4.43;;;;;;;17.00;100.00;101121.38;5077172;28;20217;-75
2023/06/24 04:15:29;;;;;;;4.73;4.33;;;;;;;16.99;100.00;101117.94;5100515;27;20221;-73
2023/06/24 04:17:54;;;;;;;4.73;4.33;;;;;;;16.98;100.00;101124.03;5072699;28;20199;-74
2023/06/24 04:20:20;;;;;;;4.93;4.43;;;;;;;16.98;100.00;101120.56;5085629;28;20706;-75
2023/06/24 04:22:45;;;;;;;4.90;4.50;;;;;;;16.95;100.00;101118.00;5087546;28;20221;-73
2023/06/24 04:25:11;;;;;;;7.20;4.80;;;;;;;16.87;100.00;101123.38;5085624;28;20186;-73
2023/06/24 04:27:36;;;;;;;5.23;4.73;;;;;;;16.83;100.00;101119.97;5084961;28;20186;-74
2023/06/24 04:30:03;;;;;;;4.67;4.27;;;;;;;16.82;100.00;101120.84;5079321;28;20185;-74
2023/06/24 04:32:28;;;;;;;4.87;4.47;;;;;;;16.85;100.00;101126.03;5080668;28;20205;-74
2023/06/24 04:34:54;;;;;;;4.90;4.50;;;;;;;16.92;100.00;101117.16;5086462;28;20232;-73
2023/06/24 04:37:19;;;;;;;4.70;4.30;;;;;;;17.00;100.00;101127.50;5084872;28;20650;-73
2023/06/24 04:39:45;;;;;;;4.30;4.00;;;;;;;17.15;100.00;101126.25;5084816;28;20181;-74
2023/06/24 04:42:11;;;;;;;4.63;4.30;;;;;;;17.44;100.00;101132.56;5089550;28;20225;-75
2023/06/24 04:44:36;;;;;;;4.77;4.37;;;;;;;17.81;100.00;101130.78;5092664;28;20789;-73
2023/06/24 04:47:02;;;;;;;5.00;4.60;;;;;;;18.21;100.00;101137.63;5087736;28;20205;-74
2023/06/24 04:49:27;;;;;;;5.10;4.60;;;;;;;18.69;99.25;101135.41;5082308;28;20565;-73
2023/06/24 04:51:52;;;;;;;5.10;4.60;;;;;;;19.24;98.07;101134.69;5082756;28;20197;-74
2023/06/24 04:54:18;;;;;;;4.10;3.77;;;;;;;19.79;96.19;101134.63;5089900;28;20918;-74
2023/06/24 04:56:45;;;;;;;5.53;4.27;;;;;;;20.38;94.26;101143.13;5092671;28;20238;-74
2023/06/24 04:59:10;;;;;;;6.97;4.60;;;;;;;20.95;91.95;101146.25;5092599;28;20260;-74
2023/06/24 05:01:35;;;;;;;7.93;3.83;;;;;;;21.44;90.56;101143.47;5087486;28;20213;-75
2023/06/24 05:04:01;;;;;;;7.83;4.17;;;;;;;21.89;88.87;101138.13;5080273;28;20616;-74
2023/06/24 05:06:26;;;;;;;6.97;4.00;;;;;;;22.40;87.08;101143.81;5084065;28;20210;-74
2023/06/24 05:08:52;;;;;;;6.13;3.83;;;;;;;23.05;83.67;101142.63;5089022;28;20188;-75
2023/06/24 05:11:17;;;;;;;9.90;4.43;;;;;;;23.39;81.94;101141.88;5080319;28;20189;-73
2023/06/24 05:13:42;;;;;;;7.60;4.17;;;;;;;23.62;80.17;101137.22;5083447;28;20295;-75
2023/06/24 05:16:08;;;;;;;4.20;3.47;;;;;;;23.90;79.71;101139.31;5089521;28;20280;-75
2023/06/24 05:18:33;;;;;;;4.70;4.30;;;;;;;24.41;77.63;101153.50;5082372;28;20185;-75
2023/06/24 05:20:58;;;;;;;3.63;3.33;;;;;;;24.40;76.75;101151.78;5080171;28;20195;-74
2023/06/24 05:23:23;;;;;;;4.00;3.67;;;;;;;25.05;75.01;101149.13;5082393;28;20220;-75
2023/06/24 05:25:49;;;;;;;5.70;3.67;;;;;;;25.51;73.92;101150.94;5084755;28;20327;-75
2023/06/24 05:28:14;;;;;;;4.07;3.77;;;;;;;25.82;73.01;101154.44;5090863;28;20191;-74
2023/06/24 05:30:41;;;;;;;4.50;4.10;;;;;;;25.57;73.22;101149.72;5089353;28;20243;-76
2023/06/24 05:33:06;;;;;;;4.53;4.03;;;;;;;25.42;73.24;101144.38;5080176;28;20212;-76
2023/06/24 05:35:33;;;;;;;5.03;3.70;;;;;;;25.85;72.86;101148.13;5096912;28;20173;-75
2023/06/24 05:37:58;;;;;;;3.75;3.42;;;;;;;26.34;71.53;101146.94;5085181;28;20320;-75
2023/06/24 05:40:23;;;;;;;4.35;3.95;;;;;;;27.03;69.92;101148.88;5083147;28;20269;-75
2023/06/24 05:42:49;;;;;;;4.88;4.38;;;;;;;27.34;68.65;101147.69;5093922;28;20283;-75
2023/06/24 05:45:14;;;;;;;4.20;3.80;;;;;;;27.19;69.18;101146.91;5082222;28;20952;-76
2023/06/24 05:47:40;;;;;;;3.92;3.53;;;;;;;27.39;69.26;101150.91;5072402;28;20185;-75
2023/06/24 05:50:06;;;;;;;4.22;3.42;;;;;;;27.53;68.69;101150.00;5079856;28;20193;-76
2023/06/24 05:52:31;;;;;;;3.95;3.65;;;;;;;27.36;68.34;101153.75;5081546;28;20213;-75
2023/06/24 05:54:56;;;;;;;4.30;3.90;;;;;;;27.88;67.63;101156.56;5083258;28;20212;-75
2023/06/24 05:57:22;;;;;;;3.58;3.28;;;;;;;28.21;67.30;101157.84;5084001;28;20209;-75
2023/06/24 05:59:47;;;;;;;5.65;3.60;;;;;;;28.60;66.97;101158.66;5082016;28;20439;-75
2023/06/24 06:02:12;;;;;;;3.83;3.47;;;;;;;28.75;66.43;101162.03;5085313;28;20213;-75
2023/06/24 06:04:38;;;;;;;5.70;3.75;;;;;;;29.20;65.81;101155.25;5094847;28;20297;-75
2023/06/24 06:07:04;;;;;;;3.78;3.47;;;;;;;29.46;65.07;101155.16;5084668;28;20208;-75
2023/06/24 06:09:29;;;;;;;6.00;4.10;;;;;;;29.94;64.61;101156.84;5084490;28;20610;-75
2023/06/24 06:11:54;;;;;;;6.70;4.35;;;;;;;29.72;64.44;101149.66;5082370;28;20211;-76
2023/06/24 06:14:20;;;;;;;8.45;4.15;;;;;;;29.84;64.75;101146.03;5090615;28;20189;-76
2023/06/24 06:16:45;;;;;;;6.88;4.70;;;;;;;30.20;64.21;101152.19;5084696;28;20197;-76
2023/06/24 06:19:10;;;;;;;9.27;4.78;;;;;;;30.17;65.03;101151.56;5081973;28;20181;-75
2023/06/24 06:21:37;;;;;;;6.10;4.50;;;;;;;30.36;64.05;101151.81;5091837;28;20188;-76
2023/06/24 06:24:02;;;;;;;5.10;4.60;;;;;;;30.50;64.35;101149.84;5086881;28;20205;-76
2023/06/24 06:26:27;;;;;;;6.80;4.70;;;;;;;30.19;64.62;101146.94;5085593;28;20214;-75
2023/06/24 06:28:53;;;;;;;4.57;4.28;;;;;;;29.96;64.79;101154.94;5066609;28;20232;-75
2023/06/24 06:31:18;;;;;;;5.75;4.38;;;;;;;30.37;64.23;101152.66;5074480;28;20370;-76
2023/06/24 06:33:44;;;;;;;4.63;4.22;;;;;;;30.32;63.65;101153.03;5081855;28;20205;-76
2023/06/24 06:36:09;;;;;;;4.20;3.80;;;;;;;30.02;63.89;101149.16;5079710;28;20204;-76
2023/06/24 06:38:34;;;;;;;5.28;4.78;;;;;;;29.02;64.78;101147.69;5083114;28;20193;-77
2023/06/24 06:41:00;;;;;;;3.88;3.50;;;;;;;29.49;64.42;101157.59;5078739;28;20193;-75
2023/06/24 06:43:25;;;;;;;5.05;4.40;;;;;;;28.96;65.18;101148.13;5083138;28;20229;-75
2023/06/24 06:45:50;;;;;;;6.57;4.65;;;;;;;28.58;65.24;101154.41;5091232;28;20258;-76
2023/06/24 06:48:16;;;;;;;5.95;3.92;;;;;;;29.26;64.53;101145.97;5082831;28;20189;-74
2023/06/24 06:50:41;;;;;;;4.13;3.83;;;;;;;28.76;64.83;101152.25;5079840;28;20185;-75
2023/06/24 06:53:06;;;;;;;6.22;4.53;;;;;;;28.45;64.97;101149.09;5087369;28;20201;-75
2023/06/24 06:55:32;;;;;;;4.38;3.80;;;;;;;28.63;64.63;101151.41;5084581;28;20584;-76
2023/06/24 06:57:57;;;;;;;4.57;3.42;;;;;;;28.68;64.56;101149.25;5079203;28;20220;-76
2023/06/24 07:00:23;;;;;;;4.03;3.72;;;;;;;28.94;63.95;101142.06;5079630;28;20211;-76
2023/06/24 07:02:48;;;;;;;4.65;4.25;;;;;;;28.11;62.84;101146.13;5079971;28;20204;-76
2023/06/24 07:05:13;;;;;;;4.70;3.75;;;;;;;27.81;62.95;101141.94;5081265;28;20263;-75
2023/06/24 07:07:39;;;;;;;4.93;3.83;;;;;;;27.61;64.19;101141.50;5089214;28;20285;-76
2023/06/24 07:10:05;;;;;;;4.13;3.83;;;;;;;28.32;63.14;101140.28;5088107;28;20204;-76
2023/06/24 07:12:30;;;;;;;7.05;4.10;;;;;;;27.41;65.86;101134.00;5081574;28;20209;-75
2023/06/24 07:14:56;;;;;;;3.55;3.33;;;;;;;28.03;65.78;101137.81;5086663;28;20221;-76
2023/06/24 07:17:21;;;;;;;4.38;3.42;;;;;;;28.44;65.07;101142.91;5083874;28;20184;-76
2023/06/24 07:19:47;;;;;;;4.45;3.83;;;;;;;27.50;66.29;101133.41;5096901;28;20660;-76
2023/06/24 07:22:13;;;;;;;4.47;3.35;;;;;;;28.29;65.10;101136.00;5073501;28;20205;-74
2023/06/24 07:24:38;;;;;;;3.90;3.60;;;;;;;28.46;65.24;101134.81;5085747;28;20215;-75
2023/06/24 07:27:04;;;;;;;4.80;4.28;;;;;;;28.12;66.36;101130.09;5087075;28;20689;-75
2023/06/24 07:29:29;;;;;;;3.95;3.65;;;;;;;28.56;65.66;101129.69;5090374;28;20189;-76
2023/06/24 07:31:54;;;;;;;5.18;4.07;;;;;;;28.51;64.66;101130.00;5089171;28;20221;-74
2023/06/24 07:34:20;;;;;;;3.50;3.20;;;;;;;28.38;65.77;101132.72;5076693;28;20547;-75
2023/06/24 07:36:45;;;;;;;3.70;3.40;;;;;;;28.75;65.28;101135.41;5079905;28;20258;-74
2023/06/24 07:39:10;;;;;;;4.85;3.90;;;;;;;28.17;66.43;101135.09;5075194;28;20190;-74
2023/06/24 07:41:36;;;;;;;4.10;3.72;;;;;;;27.66;67.00;101128.75;5073427;28;20178;-74
2023/06/24 07:44:01;;;;;;;4.10;3.70;;;;;;;28.02;66.43;101125.47;5080392;28;20261;-75
2023/06/24 07:46:27;;;;;;;3.88;3.58;;;;;;;28.17;66.43;101123.56;5073170;28;20209;-75
2023/06/24 07:48:53;;;;;;;4.10;3.70;;;;;;;28.05;67.35;101126.09;5079349;28;20219;-75
2023/06/24 07:51:18;;;;;;;3.72;3.42;;;;;;;28.29;66.87;101126.22;5080207;28;20664;-75
2023/06/24 07:53:43;;;;;;;3.95;3.65;;;;;;;28.91;65.57;101120.97;5082059;28;20200;-75
2023/06/24 07:56:09;;;;;;;4.25;3.90;;;;;;;28.86;64.39;101126.63;5079578;28;20185;-75
2023/06/24 07:58:35;;;;;;;4.47;3.80;;;;;;;28.10;66.63;101128.47;5082343;28;20186;-75
2023/06/24 08:01:00;;;;;;;4.18;3.88;;;;;;;27.28;66.92;101123.31;5102572;28;20185;-74
2023/06/24 08:03:26;;;;;;;4.07;3.78;;;;;;;27.57;67.00;101128.53;5083051;28;20702;-73
2023/06/24 08:05:51;;;;;;;4.75;4.38;;;;;;;27.46;66.52;101129.25;5083570;28;20755;-75
2023/06/24 08:08:19;;;;;;;4.75;4.25;;;;;;;27.60;66.08;101120.34;5083592;28;20194;-75
2023/06/24 08:10:45;;;;;;;4.22;3.92;;;;;;;27.16;67.39;101119.66;5090845;28;20182;-72
2023/06/24 08:13:10;;;;;;;5.20;4.43;;;;;;;27.29;67.28;101114.41;5087960;28;20566;-75
2023/06/24 08:15:35;;;;;;;4.78;4.28;;;;;;;27.38;66.53;101119.97;5090865;28;20720;-75
2023/06/24 08:18:01;;;;;;;4.40;4.00;;;;;;;27.72;64.54;101114.19;5088862;28;20186;-75
2023/06/24 08:20:26;;;;;;;4.60;4.18;;;;;;;27.74;64.94;101112.28;5089831;28;20240;-75
2023/06/24 08:22:51;;;;;;;4.40;4.00;;;;;;;27.90;64.86;101111.22;5087659;28;20973;-74
2023/06/24 08:25:17;;;;;;;4.63;4.20;;;;;;;27.73;64.83;101107.06;5099545;28;20181;-74
2023/06/24 08:27:46;;;;;;;5.47;4.40;;;;;;;27.55;64.56;101107.38;5093465;28;20241;-75
2023/06/24 08:30:12;;;;;;;4.15;3.85;;;;;;;27.83;64.32;101102.81;5096887;28;20267;-75
2023/06/24 08:32:38;;;;;;;4.80;3.90;;;;;;;27.61;64.05;101098.97;5090339;28;20205;-75
2023/06/24 08:35:04;;;;;;;5.22;3.92;;;;;;;26.77;65.34;101099.09;5081017;28;20294;-74
2023/06/24 08:37:29;;;;;;;3.97;3.50;;;;;;;27.22;64.54;101098.88;5092955;28;20317;-75
2023/06/24 08:39:54;;;;;;;4.75;3.83;;;;;;;27.16;63.22;101091.31;5094800;28;20200;-75
2023/06/24 08:42:19;;;;;;;6.07;3.53;;;;;;;27.16;63.54;101090.44;5081849;28;20240;-75
2023/06/24 08:44:45;;;;;;;4.15;3.50;;;;;;;27.06;63.85;101085.75;5096523;28;20185;-75
2023/06/24 08:47:11;;;;;;;3.80;3.50;;;;;;;27.32;62.68;101085.81;5087050;28;20250;-74
2023/06/24 08:49:48;;;;;;;4.25;3.95;;;;;;;26.83;62.62;101081.94;5088248;28;20279;-74
2023/06/24 08:52:16;;;;;;;4.07;3.78;;;;;;;26.71;62.00;101085.38;5077224;28;20208;-74
2023/06/24 08:54:45;;;;;;;3.28;3.00;;;;;;;26.64;61.75;101090.22;5084715;28;20191;-75
2023/06/24 08:57:14;;;;;;;3.83;3.40;;;;;;;26.55;62.55;101085.50;5085679;28;20268;-75
2023/06/24 08:59:40;;;;;;;4.00;3.60;;;;;;;26.80;63.29;101083.97;5088927;28;20268;-76
2023/06/24 09:02:06;;;;;;;6.50;4.20;;;;;;;26.93;63.05;101084.84;5086975;28;20226;-74
2023/06/24 09:04:32;;;;;;;8.60;3.70;;;;;;;26.59;62.25;101085.22;5086150;28;20185;-75
2023/06/24 09:06:58;;;;;;;3.60;3.30;;;;;;;26.25;62.41;101091.78;5087527;28;20212;-75
2023/06/24 09:09:24;;;;;;;4.10;3.63;;;;;;;26.23;61.31;101091.06;5081639;28;20182;-74
2023/06/24 09:12:01;;;;;;;3.53;3.23;;;;;;;26.32;62.37;101093.13;5082860;28;20697;-74
2023/06/24 09:14:30;;;;;;;4.07;3.60;;;;;;;26.13;62.53;101083.66;5082366;28;20795;-74
2023/06/24 09:16:58;;;;;;;3.93;3.53;;;;;;;26.16;62.70;101080.81;5075364;28;20279;-74
2023/06/24 09:19:24;;;;;;;3.97;3.67;;;;;;;26.08;60.82;101075.13;5085324;28;20192;-75
2023/06/24 09:21:52;;;;;;;3.90;3.20;;;;;;;26.22;59.77;101082.22;5085794;28;20189;-75
2023/06/24 09:24:18;;;;;;;4.53;3.90;;;;;;;26.30;61.93;101076.44;5085182;28;20216;-75
2023/06/24 09:26:46;;;;;;;3.70;3.40;;;;;;;26.25;61.24;101075.88;5084260;28;20353;-75
2023/06/24 09:29:14;;;;;;;3.80;3.50;;;;;;;26.28;60.80;101073.03;5093504;28;20283;-75
2023/06/24 09:31:47;;;;;;;3.30;2.90;;;;;;;26.56;60.21;101071.28;5079419;28;20186;-75
2023/06/24 09:34:14;;;;;;;3.87;3.47;;;;;;;26.84;59.96;101062.41;5070537;28;20684;-74
2023/06/24 09:36:43;;;;;;;3.23;2.93;;;;;;;27.01;59.94;101055.97;5088675;28;20181;-75
2023/06/24 09:39:08;;;;;;;4.83;2.87;;;;;;;26.21;57.75;101061.13;5098529;28;20206;-74
2023/06/24 09:41:34;;;;;;;3.77;3.47;;;;;;;26.00;59.81;101053.50;5074835;28;20605;-74
2023/06/24 09:43:59;;;;;;;3.60;3.30;;;;;;;26.24;60.11;101052.97;5086775;28;20639;-75
2023/06/24 09:46:25;;;;;;;3.50;3.30;;;;;;;26.48;60.11;101056.72;5085555;28;20772;-75
2023/06/24 09:48:50;;;;;;;4.40;4.00;;;;;;;26.57;59.77;101054.41;5097297;28;20183;-75
2023/06/24 09:51:16;;;;;;;4.27;3.37;;;;;;;26.13;58.24;101051.81;5079743;28;20285;-75
2023/06/24 09:53:44;;;;;;;4.27;3.70;;;;;;;26.28;58.20;101047.38;5087331;28;20215;-72
2023/06/24 09:56:10;;;;;;;5.07;3.53;;;;;;;26.39;58.52;101043.16;5080609;28;20307;-74
2023/06/24 09:58:36;;;;;;;3.40;3.10;;;;;;;26.80;59.08;101039.66;5088117;28;20225;-75
2023/06/24 10:01:04;;;;;;;4.17;3.40;;;;;;;26.87;59.19;101032.13;5084352;28;20193;-74
2023/06/24 10:03:33;;;;;;;4.07;3.77;;;;;;;27.14;58.66;101039.25;5091904;28;20197;-75
2023/06/24 10:06:00;;;;;;;4.80;3.27;;;;;;;27.12;57.84;101033.16;5080018;28;20205;-75
2023/06/24 10:08:26;;;;;;;3.47;3.17;;;;;;;26.91;58.46;101033.66;5089385;28;20186;-75
2023/06/24 10:10:52;;;;;;;3.40;3.10;;;;;;;26.91;58.30;101023.03;5082791;28;20181;-75
2023/06/24 10:13:17;;;;;;;3.50;3.30;;;;;;;27.12;58.58;101030.50;5090737;28;20858;-75
2023/06/24 10:15:43;;;;;;;3.70;3.40;;;;;;;26.89;58.62;101014.28;5097974;28;20513;-75
2023/06/24 10:18:37;;;;;;;3.33;3.00;;;;;;;27.15;59.25;101019.69;5074957;28;20196;-75
2023/06/24 10:21:04;;;;;;;3.90;3.17;;;;;;;26.84;58.40;101011.13;5092709;28;20188;-75
2023/06/24 10:23:43;;;;;;;3.57;3.27;;;;;;;26.91;58.12;101015.06;5084400;28;20205;-75
2023/06/24 10:26:11;;;;;;;3.73;3.43;;;;;;;27.14;58.23;101012.66;5088330;28;20216;-75
2023/06/24 10:29:08;;;;;;;4.47;4.07;;;;;;;27.12;59.22;101006.59;5093164;28;20196;-75
2023/06/24 10:31:50;;;;;;;4.27;3.87;;;;;;;27.10;60.09;101006.69;5081718;28;20193;-75
2023/06/24 10:34:19;;;;;;;5.20;3.80;;;;;;;27.08;60.04;100992.66;5082907;28;20208;-74
2023/06/24 10:36:58;;;;;;;3.67;3.37;;;;;;;26.92;58.98;100995.50;5085052;28;20191;-75
2023/06/24 10:39:58;;;;;;;4.27;3.57;;;;;;;26.54;57.46;100994.41;5085786;28;20189;-74
2023/06/24 10:42:23;;;;;;;3.30;3.00;;;;;;;26.86;57.24;100985.28;5081784;28;20699;-74
2023/06/24 10:44:50;;;;;;;7.33;3.43;;;;;;;27.18;58.24;100984.91;5095217;28;20278;-75
2023/06/24 10:47:16;;;;;;;3.30;3.10;;;;;;;27.04;56.88;100991.19;5092668;28;20231;-74
2023/06/24 10:49:42;;;;;;;4.27;3.43;;;;;;;27.00;58.90;100982.56;5089588;28;20299;-75
2023/06/24 10:52:09;;;;;;;3.20;2.90;;;;;;;27.22;56.84;100979.31;5096048;28;21020;-74
2023/06/24 10:54:38;;;;;;;3.50;3.20;;;;;;;26.96;57.47;100972.25;5086582;28;20224;-75
2023/06/24 10:57:04;;;;;;;3.63;3.30;;;;;;;27.10;57.47;100985.44;5095403;28;20189;-74
2023/06/24 10:59:40;;;;;;;6.53;3.80;;;;;;;27.04;57.68;100976.09;5101335;28;20268;-74
2023/06/24 11:02:07;;;;;;;3.80;3.47;;;;;;;27.19;57.92;100968.88;5097810;28;20209;-74
2023/06/24 11:04:32;;;;;;;4.10;3.23;;;;;;;26.93;57.54;100982.13;5104659;28;20180;-74
2023/06/24 11:07:01;;;;;;;3.90;3.50;;;;;;;26.78;56.81;100968.03;5085102;28;20227;-74
2023/06/24 11:09:27;;;;;;;3.83;3.30;;;;;;;26.75;57.09;100967.41;5090898;28;20217;-75
2023/06/24 11:11:52;;;;;;;3.60;3.23;;;;;;;26.77;56.85;100970.81;5086365;28;20258;-75
2023/06/24 11:14:20;;;;;;;3.80;3.40;;;;;;;26.97;56.92;100964.19;5092348;28;20323;-74
2023/06/24 11:16:46;;;;;;;3.43;3.13;;;;;;;26.90;57.19;100973.50;5096241;28;20185;-74
2023/06/24 11:19:11;;;;;;;3.40;3.10;;;;;;;27.15;57.67;100958.59;5086808;28;20204;-74
2023/06/24 11:21:37;;;;;;;3.60;3.30;;;;;;;27.33;56.18;100951.97;5084779;28;20191;-73